createdAt,value
2023-01-29T00:00:15.920Z,24.20
2023-01-29T00:01:15.446Z,26.30
2023-01-29T00:02:15.464Z,23.90
2023-01-29T00:03:15.613Z,24.60
2023-01-29T00:04:15.416Z,25.70
2023-01-29T00:05:27.414Z,26.30
2023-01-29T00:06:15.394Z,24.10
2023-01-29T00:07:15.366Z,25.70
2023-01-29T00:08:15.361Z,25.90
2023-01-29T00:09:15.338Z,23.80
2023-01-29T00:10:15.783Z,24.90
2023-01-29T00:11:15.313Z,25.80
2023-01-29T00:12:15.304Z,25.50
2023-01-29T00:13:15.298Z,22.50
2023-01-29T00:14:15.290Z,22.80
2023-01-29T00:15:15.263Z,24.30
2023-01-29T00:16:15.245Z,21.30
2023-01-29T00:17:15.326Z,21.60
2023-01-29T00:18:15.217Z,20.60
2023-01-29T00:19:15.225Z,21.30
2023-01-29T00:20:15.643Z,19.90
2023-01-29T00:21:15.183Z,19.00
2023-01-29T00:22:15.169Z,20.30
2023-01-29T00:23:15.154Z,23.50
2023-01-29T00:24:15.198Z,19.90
2023-01-29T00:25:15.150Z,21.60
2023-01-29T00:26:15.118Z,20.50
2023-01-29T00:27:15.102Z,19.40
2023-01-29T00:28:15.087Z,24.10
2023-01-29T00:29:15.094Z,18.40
2023-01-29T00:30:15.446Z,20.00
2023-01-29T00:31:15.292Z,18.30
2023-01-29T00:32:15.164Z,20.60
2023-01-29T00:33:15.035Z,18.40
2023-01-29T00:34:15.032Z,20.80
2023-01-29T00:35:15.013Z,19.70
2023-01-29T00:36:14.989Z,23.00
2023-01-29T00:37:14.971Z,19.80
2023-01-29T00:38:14.959Z,19.40
2023-01-29T00:39:14.963Z,18.50
2023-01-29T00:40:15.421Z,18.40
2023-01-29T00:41:14.935Z,19.70
2023-01-29T00:42:14.911Z,20.20
2023-01-29T00:43:14.895Z,20.30
2023-01-29T00:44:14.920Z,20.20
2023-01-29T00:45:14.875Z,20.20
2023-01-29T00:46:14.969Z,21.00
2023-01-29T00:47:14.849Z,18.60
2023-01-29T00:48:14.829Z,18.00
2023-01-29T00:49:14.821Z,18.30
2023-01-29T00:50:15.189Z,19.40
2023-01-29T00:51:14.808Z,19.70
2023-01-29T00:52:14.807Z,19.40
2023-01-29T00:53:14.774Z,20.80
2023-01-29T00:54:14.750Z,19.60
2023-01-29T00:55:14.771Z,18.60
2023-01-29T00:56:14.726Z,19.10
2023-01-29T00:57:14.713Z,18.70
2023-01-29T00:58:14.712Z,21.10
2023-01-29T00:59:14.691Z,17.60
2023-01-29T01:00:15.026Z,18.50
2023-01-29T01:01:14.754Z,19.60
2023-01-29T01:02:14.672Z,20.60
2023-01-29T01:03:14.653Z,19.70
2023-01-29T01:04:14.643Z,20.70
2023-01-29T01:05:14.654Z,18.40
2023-01-29T01:06:14.607Z,17.40
2023-01-29T01:07:16.140Z,18.50
2023-01-29T01:08:14.586Z,18.60
2023-01-29T01:09:14.598Z,16.90
2023-01-29T01:10:14.940Z,17.50
2023-01-29T01:11:14.552Z,17.90
2023-01-29T01:12:14.531Z,18.20
2023-01-29T01:13:14.507Z,16.40
2023-01-29T01:14:14.508Z,17.90
2023-01-29T01:15:14.488Z,18.10
2023-01-29T01:16:14.489Z,19.00
2023-01-29T01:17:14.457Z,19.80
2023-01-29T01:18:14.445Z,17.70
2023-01-29T01:19:14.790Z,17.70
2023-01-29T01:20:14.832Z,15.50
2023-01-29T01:21:14.417Z,16.10
2023-01-29T01:22:14.407Z,16.70
2023-01-29T01:23:14.384Z,16.90
2023-01-29T01:24:14.470Z,15.80
2023-01-29T01:25:14.362Z,16.20
2023-01-29T01:26:14.359Z,16.40
2023-01-29T01:27:14.330Z,17.00
2023-01-29T01:28:14.320Z,15.80
2023-01-29T01:29:14.304Z,14.90
2023-01-29T01:30:14.821Z,16.30
2023-01-29T01:31:14.465Z,14.50
2023-01-29T01:32:14.307Z,18.00
2023-01-29T01:33:14.255Z,16.80
2023-01-29T01:34:14.267Z,14.50
2023-01-29T01:35:14.222Z,14.00
2023-01-29T01:36:14.231Z,14.50
2023-01-29T01:37:14.249Z,15.50
2023-01-29T01:38:14.188Z,15.10
2023-01-29T01:39:14.190Z,14.30
2023-01-29T01:40:14.398Z,15.00
2023-01-29T01:41:14.166Z,16.20
2023-01-29T01:42:14.161Z,13.60
2023-01-29T01:43:14.143Z,17.90
2023-01-29T01:44:14.117Z,16.00
2023-01-29T01:45:14.090Z,15.70
2023-01-29T01:46:14.143Z,14.80
2023-01-29T01:47:14.085Z,15.90
2023-01-29T01:48:14.064Z,14.80
2023-01-29T01:49:14.058Z,15.10
2023-01-29T01:50:14.605Z,14.60
2023-01-29T01:51:14.027Z,13.60
2023-01-29T01:52:14.027Z,14.40
2023-01-29T01:53:13.994Z,15.60
2023-01-29T01:54:13.982Z,14.60
2023-01-29T01:55:13.999Z,14.60
2023-01-29T01:56:13.963Z,15.70
2023-01-29T01:57:13.952Z,15.10
2023-01-29T01:58:13.931Z,15.90
2023-01-29T01:59:13.918Z,14.80
2023-01-29T02:00:14.164Z,15.20
2023-01-29T02:01:13.949Z,13.10
2023-01-29T02:02:13.935Z,13.40
2023-01-29T02:03:13.885Z,14.50
2023-01-29T02:04:13.862Z,12.50
2023-01-29T02:05:13.871Z,13.90
2023-01-29T02:06:13.832Z,13.30
2023-01-29T02:07:13.823Z,12.70
2023-01-29T02:08:13.818Z,15.10
2023-01-29T02:09:13.798Z,12.60
2023-01-29T02:10:13.923Z,13.60
2023-01-29T02:11:13.769Z,13.40
2023-01-29T02:12:13.760Z,14.20
2023-01-29T02:13:13.759Z,13.60
2023-01-29T02:14:13.732Z,14.10
2023-01-29T02:15:13.710Z,13.10
2023-01-29T02:16:13.710Z,13.00
2023-01-29T02:17:13.732Z,10.90
2023-01-29T02:18:13.683Z,14.60
2023-01-29T02:19:13.658Z,12.90
2023-01-29T02:20:13.751Z,13.10
2023-01-29T02:21:13.639Z,12.80
2023-01-29T02:22:13.625Z,12.00
2023-01-29T02:23:13.622Z,12.80
2023-01-29T02:24:13.807Z,11.90
2023-01-29T02:25:13.589Z,12.60
2023-01-29T02:26:13.590Z,12.40
2023-01-29T02:27:13.559Z,11.30
2023-01-29T02:28:13.568Z,12.40
2023-01-29T02:29:13.530Z,12.00
2023-01-29T02:30:13.725Z,12.20
2023-01-29T02:31:13.550Z,12.00
2023-01-29T02:32:13.491Z,11.40
2023-01-29T02:33:13.492Z,11.80
2023-01-29T02:34:13.477Z,10.50
2023-01-29T02:35:13.467Z,10.30
2023-01-29T02:36:13.447Z,10.80
2023-01-29T02:37:13.465Z,10.80
2023-01-29T02:38:13.425Z,11.00
2023-01-29T02:39:13.406Z,12.60
2023-01-29T02:40:13.598Z,10.70
2023-01-29T02:41:13.386Z,9.60
2023-01-29T02:42:13.373Z,11.20
2023-01-29T02:43:13.374Z,10.90
2023-01-29T02:44:13.342Z,10.60
2023-01-29T02:45:13.345Z,11.30
2023-01-29T02:46:13.452Z,13.20
2023-01-29T02:47:13.305Z,11.80
2023-01-29T02:48:13.313Z,12.40
2023-01-29T02:49:13.294Z,13.30
2023-01-29T02:50:13.259Z,13.40
2023-01-29T02:51:13.274Z,12.60
2023-01-29T02:52:13.244Z,13.80
2023-01-29T02:53:13.248Z,13.10
2023-01-29T02:54:13.227Z,13.30
2023-01-29T02:55:13.224Z,12.40
2023-01-29T02:56:13.193Z,11.50
2023-01-29T02:57:13.172Z,11.90
2023-01-29T02:58:13.165Z,13.60
2023-01-29T02:59:13.190Z,10.80
2023-01-29T03:00:13.339Z,13.60
2023-01-29T03:01:13.179Z,11.30
2023-01-29T03:02:13.122Z,11.00
2023-01-29T03:03:13.096Z,11.10
2023-01-29T03:04:13.093Z,11.90
2023-01-29T03:05:13.075Z,11.80
2023-01-29T03:06:13.056Z,10.70
2023-01-29T03:07:13.054Z,11.20
2023-01-29T03:08:13.030Z,12.00
2023-01-29T03:09:13.046Z,11.70
2023-01-29T03:10:13.086Z,12.90
2023-01-29T03:11:12.997Z,11.30
2023-01-29T03:12:12.982Z,11.80
2023-01-29T03:13:12.979Z,13.00
2023-01-29T03:14:12.965Z,13.40
2023-01-29T03:15:12.948Z,13.80
2023-01-29T03:16:12.954Z,12.00
2023-01-29T03:17:12.917Z,11.40
2023-01-29T03:18:12.943Z,12.40
2023-01-29T03:19:13.511Z,12.80
2023-01-29T03:20:12.880Z,11.30
2023-01-29T03:21:12.867Z,10.50
2023-01-29T03:22:12.850Z,12.10
2023-01-29T03:23:12.853Z,12.90
2023-01-29T03:24:12.882Z,13.10
2023-01-29T03:25:12.815Z,13.40
2023-01-29T03:26:12.809Z,13.10
2023-01-29T03:27:12.793Z,13.20
2023-01-29T03:28:12.775Z,12.50
2023-01-29T03:29:12.782Z,13.70
2023-01-29T03:30:12.745Z,12.90
2023-01-29T03:31:12.814Z,13.40
2023-01-29T03:32:12.788Z,15.30
2023-01-29T03:33:12.725Z,12.50
2023-01-29T03:34:19.957Z,14.20
2023-01-29T03:35:12.705Z,14.70
2023-01-29T03:36:12.720Z,14.50
2023-01-29T03:37:12.656Z,14.40
2023-01-29T03:38:12.666Z,15.20
2023-01-29T03:39:12.634Z,14.30
2023-01-29T03:40:12.636Z,13.40
2023-01-29T03:41:12.636Z,14.60
2023-01-29T03:42:12.589Z,15.80
2023-01-29T03:43:12.579Z,13.60
2023-01-29T03:44:12.571Z,13.40
2023-01-29T03:45:12.594Z,12.80
2023-01-29T03:46:12.593Z,12.50
2023-01-29T03:47:12.583Z,12.80
2023-01-29T03:48:12.515Z,13.30
2023-01-29T03:49:12.540Z,12.50
2023-01-29T03:50:12.501Z,12.50
2023-01-29T03:51:12.474Z,13.50
2023-01-29T03:52:12.460Z,12.70
2023-01-29T03:53:12.483Z,12.60
2023-01-29T03:54:12.469Z,13.20
2023-01-29T03:55:12.470Z,12.90
2023-01-29T03:56:12.437Z,12.80
2023-01-29T03:57:12.406Z,13.10
2023-01-29T03:58:12.395Z,12.40
2023-01-29T03:59:12.386Z,13.40
2023-01-29T04:00:12.389Z,14.90
2023-01-29T04:01:12.440Z,14.20
2023-01-29T04:02:12.338Z,13.80
2023-01-29T04:03:12.345Z,13.20
2023-01-29T04:04:12.349Z,14.40
2023-01-29T04:05:12.293Z,13.90
2023-01-29T04:06:12.312Z,12.70
2023-01-29T04:07:12.296Z,15.00
2023-01-29T04:08:12.277Z,13.90
2023-01-29T04:09:12.275Z,16.30
2023-01-29T04:10:12.232Z,15.00
2023-01-29T04:11:12.247Z,16.30
2023-01-29T04:12:12.222Z,13.70
2023-01-29T04:13:12.204Z,14.80
2023-01-29T04:14:12.207Z,15.70
2023-01-29T04:15:12.186Z,15.00
2023-01-29T04:16:12.264Z,15.50
2023-01-29T04:17:12.167Z,14.00
2023-01-29T04:18:12.132Z,16.00
2023-01-29T04:19:12.147Z,15.20
2023-01-29T04:20:12.124Z,15.10
2023-01-29T04:21:12.107Z,13.50
2023-01-29T04:22:12.075Z,14.30
2023-01-29T04:23:12.080Z,13.40
2023-01-29T04:24:12.080Z,14.40
2023-01-29T04:25:12.062Z,16.20
2023-01-29T04:26:12.057Z,16.10
2023-01-29T04:27:12.029Z,14.50
2023-01-29T04:28:12.038Z,15.00
2023-01-29T04:29:11.998Z,15.70
2023-01-29T04:30:11.979Z,17.80
2023-01-29T04:31:12.065Z,17.60
2023-01-29T04:32:11.987Z,20.00
2023-01-29T04:33:11.940Z,22.30
2023-01-29T04:34:11.929Z,24.30
2023-01-29T04:35:11.926Z,17.80
2023-01-29T04:36:11.914Z,15.60
2023-01-29T04:37:11.937Z,18.20
2023-01-29T04:38:11.879Z,17.30
2023-01-29T04:39:12.095Z,16.60
2023-01-29T04:40:11.877Z,15.50
2023-01-29T04:41:11.841Z,16.10
2023-01-29T04:42:11.851Z,16.10
2023-01-29T04:43:11.841Z,16.70
2023-01-29T04:44:11.793Z,17.40
2023-01-29T04:45:11.819Z,17.40
2023-01-29T04:46:11.781Z,17.80
2023-01-29T04:47:11.823Z,22.30
2023-01-29T04:48:11.776Z,31.20
2023-01-29T04:49:11.738Z,33.90
2023-01-29T04:50:11.729Z,20.70
2023-01-29T04:51:11.746Z,19.00
2023-01-29T04:52:11.708Z,18.30
2023-01-29T04:53:11.704Z,19.20
2023-01-29T04:54:11.678Z,18.80
2023-01-29T04:55:11.670Z,18.30
2023-01-29T04:56:11.644Z,21.10
2023-01-29T04:57:11.692Z,19.90
2023-01-29T04:58:11.671Z,16.40
2023-01-29T04:59:11.696Z,17.90
2023-01-29T05:00:11.598Z,19.80
2023-01-29T05:01:11.612Z,17.90
2023-01-29T05:02:11.568Z,16.10
2023-01-29T05:03:11.602Z,19.10
2023-01-29T05:04:11.578Z,17.00
2023-01-29T05:05:11.536Z,18.30
2023-01-29T05:06:11.537Z,15.80
2023-01-29T05:07:11.517Z,18.80
2023-01-29T05:08:11.500Z,17.10
2023-01-29T05:09:11.508Z,18.10
2023-01-29T05:10:11.485Z,17.50
2023-01-29T05:11:11.456Z,16.40
2023-01-29T05:12:11.449Z,17.50
2023-01-29T05:13:11.454Z,15.90
2023-01-29T05:14:11.411Z,17.30
2023-01-29T05:15:11.403Z,17.50
2023-01-29T05:16:11.444Z,18.20
2023-01-29T05:17:11.375Z,18.50
2023-01-29T05:18:11.396Z,16.60
2023-01-29T05:19:11.351Z,16.90
2023-01-29T05:20:11.347Z,18.40
2023-01-29T05:21:11.351Z,15.70
2023-01-29T05:22:11.309Z,17.50
2023-01-29T05:23:11.341Z,16.40
2023-01-29T05:24:11.371Z,18.40
2023-01-29T05:25:11.297Z,17.00
2023-01-29T05:26:11.265Z,18.30
2023-01-29T05:27:11.277Z,17.80
2023-01-29T05:28:11.301Z,17.30
2023-01-29T05:29:11.235Z,18.00
2023-01-29T05:30:11.236Z,17.10
2023-01-29T05:31:11.269Z,19.00
2023-01-29T05:32:11.184Z,18.40
2023-01-29T05:33:11.210Z,18.20
2023-01-29T05:34:11.192Z,17.40
2023-01-29T05:35:11.183Z,16.70
2023-01-29T05:36:11.136Z,17.80
2023-01-29T05:37:11.163Z,16.70
2023-01-29T05:38:11.120Z,15.00
2023-01-29T05:39:11.156Z,15.80
2023-01-29T05:40:11.078Z,16.20
2023-01-29T05:41:11.097Z,15.70
2023-01-29T05:42:11.077Z,17.80
2023-01-29T05:43:11.044Z,16.30
2023-01-29T05:44:11.041Z,15.70
2023-01-29T05:45:11.026Z,16.50
2023-01-29T05:46:11.023Z,15.30
2023-01-29T05:47:11.015Z,16.30
2023-01-29T05:48:10.987Z,16.10
2023-01-29T05:49:11.001Z,14.90
2023-01-29T05:50:10.974Z,14.50
2023-01-29T05:51:10.966Z,15.30
2023-01-29T05:52:10.948Z,15.40
2023-01-29T05:53:10.929Z,16.90
2023-01-29T05:54:10.942Z,13.90
2023-01-29T05:55:10.904Z,15.00
2023-01-29T05:56:10.901Z,16.00
2023-01-29T05:57:10.867Z,14.20
2023-01-29T05:58:10.857Z,19.60
2023-01-29T05:59:10.855Z,15.30
2023-01-29T06:00:10.825Z,15.00
2023-01-29T06:01:10.857Z,13.80
2023-01-29T06:02:10.847Z,12.90
2023-01-29T06:03:10.847Z,14.30
2023-01-29T06:04:10.815Z,13.40
2023-01-29T06:05:10.773Z,12.80
2023-01-29T06:06:10.767Z,12.90
2023-01-29T06:07:10.733Z,12.80
2023-01-29T06:08:10.744Z,14.00
2023-01-29T06:09:10.725Z,12.90
2023-01-29T06:10:10.694Z,14.00
2023-01-29T06:11:10.711Z,12.80
2023-01-29T06:12:10.677Z,14.60
2023-01-29T06:13:10.656Z,13.10
2023-01-29T06:14:10.653Z,14.20
2023-01-29T06:15:10.648Z,13.70
2023-01-29T06:16:10.667Z,14.20
2023-01-29T06:17:10.608Z,13.20
2023-01-29T06:18:10.605Z,16.80
2023-01-29T06:19:10.594Z,13.90
2023-01-29T06:20:10.584Z,14.10
2023-01-29T06:21:10.585Z,15.90
2023-01-29T06:22:10.552Z,14.50
2023-01-29T06:23:10.538Z,15.00
2023-01-29T06:24:10.572Z,15.00
2023-01-29T06:25:10.525Z,14.90
2023-01-29T06:26:10.503Z,16.50
2023-01-29T06:27:10.531Z,14.30
2023-01-29T06:28:10.488Z,12.70
2023-01-29T06:29:10.476Z,13.70
2023-01-29T06:30:10.482Z,13.60
2023-01-29T06:31:37.840Z,14.90
2023-01-29T06:32:10.493Z,14.60
2023-01-29T06:33:10.424Z,11.80
2023-01-29T06:34:10.395Z,14.30
2023-01-29T06:35:10.411Z,12.70
2023-01-29T06:36:10.360Z,12.30
2023-01-29T06:37:10.409Z,15.50
2023-01-29T06:38:10.361Z,12.50
2023-01-29T06:39:10.326Z,12.00
2023-01-29T06:40:10.388Z,12.80
2023-01-29T06:41:10.324Z,13.20
2023-01-29T06:42:10.287Z,11.10
2023-01-29T06:43:10.306Z,12.70
2023-01-29T06:44:10.287Z,12.80
2023-01-29T06:45:10.263Z,13.70
2023-01-29T06:46:10.242Z,12.40
2023-01-29T06:47:10.246Z,13.80
2023-01-29T06:48:10.209Z,14.70
2023-01-29T06:49:10.193Z,13.20
2023-01-29T06:50:10.193Z,12.70
2023-01-29T06:51:10.175Z,14.70
2023-01-29T06:52:10.157Z,14.40
2023-01-29T06:53:10.150Z,12.50
2023-01-29T06:54:10.138Z,13.30
2023-01-29T06:55:10.134Z,13.00
2023-01-29T06:56:10.125Z,13.20
2023-01-29T06:57:10.093Z,13.60
2023-01-29T06:58:10.113Z,14.50
2023-01-29T06:59:10.069Z,13.20
2023-01-29T07:00:10.078Z,16.10
2023-01-29T07:01:10.139Z,14.80
2023-01-29T07:02:10.068Z,17.70
2023-01-29T07:03:10.032Z,14.70
2023-01-29T07:04:10.035Z,16.30
2023-01-29T07:05:09.997Z,16.00
2023-01-29T07:06:10.000Z,15.90
2023-01-29T07:07:09.973Z,15.30
2023-01-29T07:08:09.974Z,17.40
2023-01-29T07:09:09.952Z,13.80
2023-01-29T07:10:09.946Z,14.70
2023-01-29T07:11:09.931Z,17.40
2023-01-29T07:12:09.933Z,19.00
2023-01-29T07:13:09.900Z,14.80
2023-01-29T07:14:09.884Z,15.70
2023-01-29T07:15:09.867Z,14.80
2023-01-29T07:16:09.978Z,17.00
2023-01-29T07:17:09.843Z,15.60
2023-01-29T07:18:09.820Z,14.90
2023-01-29T07:19:09.834Z,16.50
2023-01-29T07:20:09.840Z,17.70
2023-01-29T07:21:09.807Z,14.10
2023-01-29T07:22:09.800Z,14.40
2023-01-29T07:23:09.760Z,15.60
2023-01-29T07:24:09.830Z,16.50
2023-01-29T07:25:09.747Z,16.10
2023-01-29T07:26:09.738Z,16.40
2023-01-29T07:27:09.707Z,16.00
2023-01-29T07:28:09.721Z,14.30
2023-01-29T07:29:09.687Z,11.90
2023-01-29T07:30:09.683Z,13.20
2023-01-29T07:31:09.724Z,13.90
2023-01-29T07:32:09.683Z,14.00
2023-01-29T07:33:09.648Z,14.70
2023-01-29T07:34:09.624Z,15.10
2023-01-29T07:35:09.610Z,12.80
2023-01-29T07:36:09.609Z,15.60
2023-01-29T07:37:09.599Z,15.40
2023-01-29T07:38:09.587Z,13.80
2023-01-29T07:39:09.556Z,14.70
2023-01-29T07:40:09.560Z,13.20
2023-01-29T07:41:09.534Z,12.40
2023-01-29T07:42:09.559Z,13.60
2023-01-29T07:43:09.537Z,13.70
2023-01-29T07:44:09.517Z,12.60
2023-01-29T07:45:09.478Z,12.40
2023-01-29T07:46:09.604Z,10.30
2023-01-29T07:47:09.462Z,12.80
2023-01-29T07:48:09.455Z,14.30
2023-01-29T07:49:09.432Z,13.80
2023-01-29T07:50:09.426Z,13.20
2023-01-29T07:51:09.424Z,13.30
2023-01-29T07:52:09.399Z,13.60
2023-01-29T07:53:09.415Z,13.40
2023-01-29T07:54:09.424Z,13.50
2023-01-29T07:55:09.370Z,13.60
2023-01-29T07:56:09.343Z,12.10
2023-01-29T07:57:09.363Z,11.20
2023-01-29T07:58:09.318Z,10.60
2023-01-29T07:59:09.321Z,11.40
2023-01-29T08:00:09.289Z,15.00
2023-01-29T08:01:09.291Z,11.70
2023-01-29T08:02:09.322Z,11.10
2023-01-29T08:03:09.250Z,11.10
2023-01-29T08:04:09.248Z,13.30
2023-01-29T08:05:09.227Z,12.20
2023-01-29T08:06:09.210Z,12.40
2023-01-29T08:07:09.235Z,11.80
2023-01-29T08:08:09.207Z,13.90
2023-01-29T08:09:09.307Z,11.30
2023-01-29T08:10:09.181Z,11.60
2023-01-29T08:11:09.169Z,12.30
2023-01-29T08:12:09.158Z,10.50
2023-01-29T08:13:09.141Z,11.90
2023-01-29T08:14:09.213Z,13.30
2023-01-29T08:15:09.119Z,12.60
2023-01-29T08:16:09.150Z,14.50
2023-01-29T08:17:09.164Z,15.30
2023-01-29T08:18:09.109Z,16.10
2023-01-29T08:19:09.055Z,13.60
2023-01-29T08:20:09.074Z,9.80
2023-01-29T08:21:09.035Z,11.40
2023-01-29T08:22:09.013Z,13.50
2023-01-29T08:23:09.010Z,11.80
2023-01-29T08:24:08.995Z,9.60
2023-01-29T08:25:09.017Z,12.90
2023-01-29T08:26:08.998Z,12.70
2023-01-29T08:27:08.987Z,11.60
2023-01-29T08:28:08.949Z,10.00
2023-01-29T08:29:08.973Z,13.60
2023-01-29T08:30:08.932Z,9.80
2023-01-29T08:31:09.012Z,11.50
2023-01-29T08:32:08.885Z,13.00
2023-01-29T08:33:08.904Z,10.10
2023-01-29T08:34:08.877Z,9.70
2023-01-29T08:35:08.876Z,10.20
2023-01-29T08:36:08.857Z,10.50
2023-01-29T08:37:08.807Z,14.40
2023-01-29T08:38:08.812Z,15.00
2023-01-29T08:39:08.817Z,22.60
2023-01-29T08:40:08.909Z,20.50
2023-01-29T08:41:08.833Z,17.30
2023-01-29T08:42:08.762Z,19.30
2023-01-29T08:43:09.585Z,16.90
2023-01-29T08:44:08.730Z,9.30
2023-01-29T08:45:08.761Z,11.40
2023-01-29T08:46:08.796Z,10.40
2023-01-29T08:47:08.687Z,10.60
2023-01-29T08:48:08.742Z,11.90
2023-01-29T08:49:08.667Z,9.70
2023-01-29T08:50:08.649Z,10.10
2023-01-29T08:51:08.635Z,9.80
2023-01-29T08:52:08.647Z,11.00
2023-01-29T08:53:08.661Z,10.20
2023-01-29T08:54:08.607Z,9.70
2023-01-29T08:55:08.586Z,8.90
2023-01-29T08:56:08.573Z,8.70
2023-01-29T08:57:08.561Z,9.30
2023-01-29T08:58:08.573Z,8.00
2023-01-29T08:59:08.551Z,17.50
2023-01-29T09:00:08.541Z,20.20
2023-01-29T09:01:08.583Z,16.30
2023-01-29T09:02:08.531Z,12.10
2023-01-29T09:03:08.491Z,11.00
2023-01-29T09:04:08.491Z,9.30
2023-01-29T09:05:08.449Z,9.40
2023-01-29T09:06:08.480Z,9.40
2023-01-29T09:07:08.461Z,10.00
2023-01-29T09:08:08.422Z,13.50
2023-01-29T09:09:08.424Z,12.80
2023-01-29T09:10:08.397Z,11.90
2023-01-29T09:11:08.394Z,12.70
2023-01-29T09:12:08.379Z,10.60
2023-01-29T09:13:08.357Z,11.60
2023-01-29T09:14:08.363Z,14.90
2023-01-29T09:15:08.368Z,10.60
2023-01-29T09:16:08.333Z,15.80
2023-01-29T09:17:08.317Z,11.00
2023-01-29T09:18:08.291Z,7.90
2023-01-29T09:19:08.298Z,14.80
2023-01-29T09:20:08.262Z,22.20
2023-01-29T09:21:08.290Z,21.00
2023-01-29T09:22:09.883Z,18.80
2023-01-29T09:23:08.217Z,10.50
2023-01-29T09:24:08.221Z,12.90
2023-01-29T09:25:08.196Z,13.40
2023-01-29T09:26:08.302Z,15.00
2023-01-29T09:27:08.175Z,14.40
2023-01-29T09:28:08.204Z,12.90
2023-01-29T09:29:08.151Z,10.90
2023-01-29T09:30:08.150Z,14.40
2023-01-29T09:31:08.184Z,11.90
2023-01-29T09:32:08.119Z,12.80
2023-01-29T09:33:08.090Z,14.80
2023-01-29T09:34:08.122Z,13.70
2023-01-29T09:35:08.089Z,13.70
2023-01-29T09:36:08.074Z,14.60
2023-01-29T09:37:08.042Z,15.90
2023-01-29T09:38:08.054Z,19.80
2023-01-29T09:39:08.020Z,19.70
2023-01-29T09:40:08.021Z,22.60
2023-01-29T09:41:07.992Z,10.80
2023-01-29T09:42:08.004Z,15.40
2023-01-29T09:43:07.987Z,20.00
2023-01-29T09:44:07.979Z,17.90
2023-01-29T09:45:07.961Z,23.10
2023-01-29T09:46:07.970Z,23.50
2023-01-29T09:47:07.954Z,16.10
2023-01-29T09:48:07.907Z,18.60
2023-01-29T09:49:07.883Z,14.60
2023-01-29T09:50:07.918Z,20.70
2023-01-29T09:51:07.867Z,21.70
2023-01-29T09:52:07.882Z,19.90
2023-01-29T09:53:07.840Z,18.50
2023-01-29T09:54:07.834Z,16.60
2023-01-29T09:55:07.840Z,13.30
2023-01-29T09:56:07.799Z,11.90
2023-01-29T09:57:07.781Z,11.10
2023-01-29T09:58:07.786Z,12.90
2023-01-29T09:59:07.759Z,11.90
2023-01-29T10:00:08.641Z,11.80
2023-01-29T10:01:07.786Z,17.40
2023-01-29T10:02:07.880Z,13.10
2023-01-29T10:04:07.736Z,16.20
2023-01-29T10:05:07.680Z,15.00
2023-01-29T10:06:07.703Z,16.30
2023-01-29T10:07:07.664Z,16.30
2023-01-29T10:08:07.666Z,11.90
2023-01-29T10:09:07.649Z,13.70
2023-01-29T10:10:07.653Z,12.50
2023-01-29T10:11:07.613Z,15.90
2023-01-29T10:12:07.604Z,13.30
2023-01-29T10:13:07.625Z,13.70
2023-01-29T10:14:07.566Z,14.20
2023-01-29T10:15:07.554Z,14.30
2023-01-29T10:16:07.580Z,15.80
2023-01-29T10:17:07.569Z,15.50
2023-01-29T10:18:07.521Z,14.00
2023-01-29T10:19:07.505Z,13.30
2023-01-29T10:20:07.489Z,16.30
2023-01-29T10:21:07.507Z,14.80
2023-01-29T10:22:07.472Z,15.70
2023-01-29T10:23:07.458Z,15.40
2023-01-29T10:24:07.454Z,15.30
2023-01-29T10:25:07.437Z,14.90
2023-01-29T10:26:07.468Z,15.20
2023-01-29T10:27:07.446Z,15.10
2023-01-29T10:28:07.409Z,15.10
2023-01-29T10:29:07.392Z,13.30
2023-01-29T10:30:07.366Z,15.50
2023-01-29T10:31:07.526Z,16.60
2023-01-29T10:32:07.484Z,20.50
2023-01-29T10:33:07.369Z,19.20
2023-01-29T10:34:07.332Z,21.30
2023-01-29T10:35:07.327Z,19.20
2023-01-29T10:36:07.292Z,15.90
2023-01-29T10:37:07.312Z,18.30
2023-01-29T10:38:07.274Z,15.20
2023-01-29T10:39:07.267Z,15.10
2023-01-29T10:40:07.235Z,14.60
2023-01-29T10:41:07.221Z,14.30
2023-01-29T10:42:07.233Z,15.00
2023-01-29T10:43:07.207Z,13.50
2023-01-29T10:44:07.218Z,14.50
2023-01-29T10:45:07.207Z,14.10
2023-01-29T10:46:07.176Z,14.40
2023-01-29T10:47:07.236Z,13.40
2023-01-29T10:48:07.157Z,13.10
2023-01-29T10:49:07.147Z,16.20
2023-01-29T10:50:07.124Z,14.90
2023-01-29T10:51:07.094Z,16.30
2023-01-29T10:52:07.096Z,28.10
2023-01-29T10:53:07.076Z,23.70
2023-01-29T10:54:07.081Z,14.80
2023-01-29T10:55:07.040Z,18.60
2023-01-29T10:56:20.920Z,15.90
2023-01-29T10:57:07.045Z,13.40
2023-01-29T10:58:07.009Z,13.20
2023-01-29T10:59:06.988Z,15.50
2023-01-29T11:00:06.981Z,18.80
2023-01-29T11:01:06.985Z,16.20
2023-01-29T11:02:06.956Z,14.30
2023-01-29T11:03:12.486Z,15.50
2023-01-29T11:04:06.959Z,13.20
2023-01-29T11:05:08.313Z,14.20
2023-01-29T11:06:06.913Z,14.10
2023-01-29T11:07:06.900Z,13.90
2023-01-29T11:08:07.211Z,15.20
2023-01-29T11:09:06.862Z,14.10
2023-01-29T11:10:06.887Z,13.80
2023-01-29T11:11:06.848Z,13.80
2023-01-29T11:12:06.839Z,16.20
2023-01-29T11:13:06.843Z,18.60
2023-01-29T11:14:06.870Z,19.50
2023-01-29T11:15:06.785Z,15.10
2023-01-29T11:16:06.784Z,14.20
2023-01-29T11:17:06.785Z,11.80
2023-01-29T11:18:06.764Z,11.70
2023-01-29T11:19:06.748Z,13.00
2023-01-29T11:20:06.721Z,13.30
2023-01-29T11:21:06.730Z,13.60
2023-01-29T11:22:06.692Z,13.00
2023-01-29T11:23:07.649Z,12.60
2023-01-29T11:24:06.692Z,13.70
2023-01-29T11:25:06.676Z,11.40
2023-01-29T11:26:06.641Z,18.50
2023-01-29T11:27:06.640Z,14.60
2023-01-29T11:28:06.618Z,18.50
2023-01-29T11:29:06.623Z,12.90
2023-01-29T11:30:06.614Z,14.70
2023-01-29T11:31:06.671Z,12.80
2023-01-29T11:32:06.579Z,26.50
2023-01-29T11:33:06.555Z,18.90
2023-01-29T11:34:06.563Z,12.70
2023-01-29T11:35:06.547Z,13.90
2023-01-29T11:36:06.528Z,20.20
2023-01-29T11:37:06.509Z,15.70
2023-01-29T11:38:06.499Z,23.80
2023-01-29T11:39:06.504Z,24.80
2023-01-29T11:40:06.467Z,18.90
2023-01-29T11:41:06.468Z,15.20
2023-01-29T11:42:06.451Z,21.90
2023-01-29T11:43:06.423Z,23.70
2023-01-29T11:44:06.515Z,18.80
2023-01-29T11:45:06.428Z,22.40
2023-01-29T11:46:06.491Z,20.60
2023-01-29T11:47:06.378Z,22.50
2023-01-29T11:48:06.357Z,22.20
2023-01-29T11:49:20.387Z,28.30
2023-01-29T11:50:06.372Z,29.30
2023-01-29T11:51:06.610Z,17.10
2023-01-29T11:52:06.309Z,16.80
2023-01-29T11:53:06.318Z,26.60
2023-01-29T11:54:06.320Z,23.60
2023-01-29T11:55:06.281Z,17.20
2023-01-29T11:56:06.288Z,22.80
2023-01-29T11:57:06.272Z,22.80
2023-01-29T11:58:06.244Z,19.00
2023-01-29T11:59:06.265Z,23.20
2023-01-29T12:00:06.207Z,26.60
2023-01-29T12:01:06.215Z,15.90
2023-01-29T12:02:06.185Z,19.00
2023-01-29T12:03:06.187Z,18.30
2023-01-29T12:04:06.242Z,26.20
2023-01-29T12:05:06.171Z,23.90
2023-01-29T12:06:06.209Z,28.20
2023-01-29T12:07:06.192Z,21.30
2023-01-29T12:08:06.127Z,19.40
2023-01-29T12:09:06.090Z,18.70
2023-01-29T12:10:06.100Z,18.80
2023-01-29T12:11:06.072Z,18.40
2023-01-29T12:12:06.067Z,16.60
2023-01-29T12:13:06.050Z,15.40
2023-01-29T12:14:06.091Z,20.80
2023-01-29T12:15:06.042Z,20.70
2023-01-29T12:16:06.060Z,20.20
2023-01-29T12:17:06.016Z,19.30
2023-01-29T12:18:05.988Z,17.10
2023-01-29T12:19:05.990Z,15.00
2023-01-29T12:20:05.963Z,14.90
2023-01-29T12:21:05.944Z,20.90
2023-01-29T12:22:05.936Z,18.70
2023-01-29T12:23:05.961Z,20.30
2023-01-29T12:24:05.900Z,18.90
2023-01-29T12:25:05.912Z,21.50
2023-01-29T12:26:05.895Z,18.10
2023-01-29T12:27:05.868Z,19.20
2023-01-29T12:28:07.854Z,25.40
2023-01-29T12:29:05.845Z,20.50
2023-01-29T12:30:05.840Z,26.80
2023-01-29T12:31:05.859Z,20.50
2023-01-29T12:32:05.817Z,23.00
2023-01-29T12:33:05.803Z,18.20
2023-01-29T12:34:05.782Z,18.20
2023-01-29T12:35:05.774Z,16.50
2023-01-29T12:36:05.762Z,14.60
2023-01-29T12:37:05.760Z,28.60
2023-01-29T12:38:05.731Z,21.50
2023-01-29T12:39:05.718Z,16.60
2023-01-29T12:40:05.722Z,16.60
2023-01-29T12:41:05.690Z,13.20
2023-01-29T12:42:05.695Z,23.40
2023-01-29T12:43:05.669Z,18.40
2023-01-29T12:44:05.648Z,19.00
2023-01-29T12:45:05.712Z,23.90
2023-01-29T12:46:05.628Z,22.10
2023-01-29T12:47:05.738Z,20.40
2023-01-29T12:48:05.593Z,21.60
2023-01-29T12:49:05.582Z,24.50
2023-01-29T12:50:05.562Z,22.50
2023-01-29T12:51:05.569Z,21.30
2023-01-29T12:52:05.541Z,15.40
2023-01-29T12:53:05.540Z,14.40
2023-01-29T12:54:05.533Z,14.00